sensor_id;sensor_type;location;lat;lon;timestamp;temperature;humidity
913;DHT22;443;51.448;7.028;2023-08-06T00:00:25;18.30;90.60
913;DHT22;443;51.448;7.028;2023-08-06T00:02:53;18.30;90.60
913;DHT22;443;51.448;7.028;2023-08-06T00:05:19;18.30;90.70
913;DHT22;443;51.448;7.028;2023-08-06T00:07:46;18.30;90.60
913;DHT22;443;51.448;7.028;2023-08-06T00:10:13;18.30;90.60
913;DHT22;443;51.448;7.028;2023-08-06T00:12:40;18.20;90.50
913;DHT22;443;51.448;7.028;2023-08-06T00:15:09;18.20;90.60
913;DHT22;443;51.448;7.028;2023-08-06T00:17:36;18.10;90.70
913;DHT22;443;51.448;7.028;2023-08-06T00:20:05;18.20;90.80
913;DHT22;443;51.448;7.028;2023-08-06T00:22:32;18.10;90.70
913;DHT22;443;51.448;7.028;2023-08-06T00:24:59;18.10;90.70
913;DHT22;443;51.448;7.028;2023-08-06T00:27:25;18.10;90.70
913;DHT22;443;51.448;7.028;2023-08-06T00:29:52;18.10;90.70
913;DHT22;443;51.448;7.028;2023-08-06T00:32:21;18.20;90.70
913;DHT22;443;51.448;7.028;2023-08-06T00:34:48;18.10;90.70
913;DHT22;443;51.448;7.028;2023-08-06T00:37:15;18.20;90.80
913;DHT22;443;51.448;7.028;2023-08-06T00:39:43;18.10;90.60
913;DHT22;443;51.448;7.028;2023-08-06T00:42:10;18.20;90.70
913;DHT22;443;51.448;7.028;2023-08-06T00:44:36;18.20;90.60
913;DHT22;443;51.448;7.028;2023-08-06T00:47:04;18.20;90.70
913;DHT22;443;51.448;7.028;2023-08-06T00:49:33;18.30;90.60
913;DHT22;443;51.448;7.028;2023-08-06T00:52:00;18.30;90.50
913;DHT22;443;51.448;7.028;2023-08-06T00:54:27;18.40;90.50
913;DHT22;443;51.448;7.028;2023-08-06T00:56:54;18.40;90.40
913;DHT22;443;51.448;7.028;2023-08-06T00:59:23;18.40;90.40
913;DHT22;443;51.448;7.028;2023-08-06T01:01:50;18.40;90.30
913;DHT22;443;51.448;7.028;2023-08-06T01:04:17;18.40;90.30
913;DHT22;443;51.448;7.028;2023-08-06T01:06:48;18.40;90.30
913;DHT22;443;51.448;7.028;2023-08-06T01:09:25;18.30;90.40
913;DHT22;443;51.448;7.028;2023-08-06T01:12:01;18.40;90.50
913;DHT22;443;51.448;7.028;2023-08-06T01:14:37;18.40;90.40
913;DHT22;443;51.448;7.028;2023-08-06T01:17:08;18.40;90.30
913;DHT22;443;51.448;7.028;2023-08-06T01:19:36;18.40;90.30
913;DHT22;443;51.448;7.028;2023-08-06T01:22:04;18.40;90.30
913;DHT22;443;51.448;7.028;2023-08-06T01:24:31;18.40;90.30
913;DHT22;443;51.448;7.028;2023-08-06T01:27:03;18.40;90.30
913;DHT22;443;51.448;7.028;2023-08-06T01:29:35;18.40;90.30
913;DHT22;443;51.448;7.028;2023-08-06T01:32:04;18.40;90.30
913;DHT22;443;51.448;7.028;2023-08-06T01:34:33;18.40;90.20
913;DHT22;443;51.448;7.028;2023-08-06T01:37:01;18.40;90.20
913;DHT22;443;51.448;7.028;2023-08-06T01:39:30;18.40;90.30
913;DHT22;443;51.448;7.028;2023-08-06T01:41:57;18.40;90.30
913;DHT22;443;51.448;7.028;2023-08-06T01:44:24;18.40;90.30
913;DHT22;443;51.448;7.028;2023-08-06T01:46:51;18.30;90.40
913;DHT22;443;51.448;7.028;2023-08-06T01:49:17;18.20;90.40
913;DHT22;443;51.448;7.028;2023-08-06T01:51:44;18.20;90.50
913;DHT22;443;51.448;7.028;2023-08-06T01:54:11;18.20;90.50
913;DHT22;443;51.448;7.028;2023-08-06T01:56:39;18.20;90.50
913;DHT22;443;51.448;7.028;2023-08-06T01:59:06;18.20;90.60
913;DHT22;443;51.448;7.028;2023-08-06T02:01:32;18.20;90.50
913;DHT22;443;51.448;7.028;2023-08-06T02:03:59;18.20;90.40
913;DHT22;443;51.448;7.028;2023-08-06T02:06:26;18.20;90.60
913;DHT22;443;51.448;7.028;2023-08-06T02:08:53;18.30;90.60
913;DHT22;443;51.448;7.028;2023-08-06T02:11:20;18.20;90.40
913;DHT22;443;51.448;7.028;2023-08-06T02:13:48;18.20;90.60
913;DHT22;443;51.448;7.028;2023-08-06T02:16:15;18.20;90.50
913;DHT22;443;51.448;7.028;2023-08-06T02:18:41;18.20;90.60
913;DHT22;443;51.448;7.028;2023-08-06T02:21:08;18.20;90.50
913;DHT22;443;51.448;7.028;2023-08-06T02:23:35;18.20;90.50
913;DHT22;443;51.448;7.028;2023-08-06T02:26:03;18.10;90.40
913;DHT22;443;51.448;7.028;2023-08-06T02:28:30;18.10;90.40
913;DHT22;443;51.448;7.028;2023-08-06T02:30:58;18.10;90.60
913;DHT22;443;51.448;7.028;2023-08-06T02:33:25;18.20;90.70
913;DHT22;443;51.448;7.028;2023-08-06T02:35:59;18.20;90.60
913;DHT22;443;51.448;7.028;2023-08-06T02:38:25;18.20;90.50
913;DHT22;443;51.448;7.028;2023-08-06T02:40:52;18.20;90.40
913;DHT22;443;51.448;7.028;2023-08-06T02:43:19;18.20;90.50
913;DHT22;443;51.448;7.028;2023-08-06T02:45:46;18.20;90.40
913;DHT22;443;51.448;7.028;2023-08-06T02:48:14;18.10;90.30
913;DHT22;443;51.448;7.028;2023-08-06T02:50:41;18.20;90.60
913;DHT22;443;51.448;7.028;2023-08-06T02:53:08;18.20;90.50
913;DHT22;443;51.448;7.028;2023-08-06T02:55:35;18.20;90.30
913;DHT22;443;51.448;7.028;2023-08-06T02:58:02;18.20;90.30
913;DHT22;443;51.448;7.028;2023-08-06T03:00:29;18.10;90.50
913;DHT22;443;51.448;7.028;2023-08-06T03:02:56;18.20;90.60
913;DHT22;443;51.448;7.028;2023-08-06T03:05:24;18.20;90.60
913;DHT22;443;51.448;7.028;2023-08-06T03:07:50;18.20;90.40
913;DHT22;443;51.448;7.028;2023-08-06T03:10:17;18.20;90.40
913;DHT22;443;51.448;7.028;2023-08-06T03:12:45;18.10;90.50
913;DHT22;443;51.448;7.028;2023-08-06T03:15:12;18.10;90.50
913;DHT22;443;51.448;7.028;2023-08-06T03:17:38;18.00;90.80
913;DHT22;443;51.448;7.028;2023-08-06T03:20:06;18.10;90.60
913;DHT22;443;51.448;7.028;2023-08-06T03:22:34;18.10;90.50
913;DHT22;443;51.448;7.028;2023-08-06T03:25:01;18.00;90.50
913;DHT22;443;51.448;7.028;2023-08-06T03:27:28;18.00;90.50
913;DHT22;443;51.448;7.028;2023-08-06T03:29:55;18.00;90.60
913;DHT22;443;51.448;7.028;2023-08-06T03:32:22;18.00;90.60
913;DHT22;443;51.448;7.028;2023-08-06T03:34:48;17.90;90.60
913;DHT22;443;51.448;7.028;2023-08-06T03:37:15;18.00;90.60
913;DHT22;443;51.448;7.028;2023-08-06T03:39:43;18.00;90.60
913;DHT22;443;51.448;7.028;2023-08-06T03:42:10;17.90;90.60
913;DHT22;443;51.448;7.028;2023-08-06T03:44:37;18.00;90.70
913;DHT22;443;51.448;7.028;2023-08-06T03:47:05;17.90;90.60
913;DHT22;443;51.448;7.028;2023-08-06T03:49:32;17.80;90.60
913;DHT22;443;51.448;7.028;2023-08-06T03:51:58;17.80;90.70
913;DHT22;443;51.448;7.028;2023-08-06T03:54:25;17.80;90.70
913;DHT22;443;51.448;7.028;2023-08-06T03:56:53;17.80;90.70
913;DHT22;443;51.448;7.028;2023-08-06T03:59:20;17.90;90.80
913;DHT22;443;51.448;7.028;2023-08-06T04:01:47;17.80;90.60
913;DHT22;443;51.448;7.028;2023-08-06T04:04:13;17.90;90.70
913;DHT22;443;51.448;7.028;2023-08-06T04:06:40;17.90;90.60
913;DHT22;443;51.448;7.028;2023-08-06T04:09:07;17.90;90.70
913;DHT22;443;51.448;7.028;2023-08-06T04:11:33;18.00;90.80
913;DHT22;443;51.448;7.028;2023-08-06T04:14:01;18.00;90.60
913;DHT22;443;51.448;7.028;2023-08-06T04:16:28;17.90;90.50
913;DHT22;443;51.448;7.028;2023-08-06T04:18:55;17.90;90.70
913;DHT22;443;51.448;7.028;2023-08-06T04:21:22;17.90;90.60
913;DHT22;443;51.448;7.028;2023-08-06T04:23:48;17.80;90.70
913;DHT22;443;51.448;7.028;2023-08-06T04:26:15;17.80;90.70
913;DHT22;443;51.448;7.028;2023-08-06T04:28:42;17.80;90.70
913;DHT22;443;51.448;7.028;2023-08-06T04:31:10;17.80;90.70
913;DHT22;443;51.448;7.028;2023-08-06T04:33:36;17.80;90.70
913;DHT22;443;51.448;7.028;2023-08-06T04:36:03;17.90;91.00
913;DHT22;443;51.448;7.028;2023-08-06T04:38:30;17.80;90.70
913;DHT22;443;51.448;7.028;2023-08-06T04:40:58;18.00;90.90
913;DHT22;443;51.448;7.028;2023-08-06T04:43:25;17.90;90.80
913;DHT22;443;51.448;7.028;2023-08-06T04:45:54;18.00;90.50
913;DHT22;443;51.448;7.028;2023-08-06T04:48:23;18.00;90.60
913;DHT22;443;51.448;7.028;2023-08-06T04:50:50;18.00;90.80
913;DHT22;443;51.448;7.028;2023-08-06T04:53:17;18.10;90.70
913;DHT22;443;51.448;7.028;2023-08-06T04:55:44;18.00;90.50
913;DHT22;443;51.448;7.028;2023-08-06T04:58:11;18.00;90.70
913;DHT22;443;51.448;7.028;2023-08-06T05:00:38;17.90;90.50
913;DHT22;443;51.448;7.028;2023-08-06T05:03:05;17.80;90.90
913;DHT22;443;51.448;7.028;2023-08-06T05:05:34;17.80;90.90
913;DHT22;443;51.448;7.028;2023-08-06T05:08:00;17.80;90.90
913;DHT22;443;51.448;7.028;2023-08-06T05:10:28;17.80;90.80
913;DHT22;443;51.448;7.028;2023-08-06T05:12:54;17.80;90.90
913;DHT22;443;51.448;7.028;2023-08-06T05:15:21;17.80;90.90
913;DHT22;443;51.448;7.028;2023-08-06T05:17:50;17.80;91.00
913;DHT22;443;51.448;7.028;2023-08-06T05:20:17;17.80;90.80
913;DHT22;443;51.448;7.028;2023-08-06T05:22:45;17.90;90.80
913;DHT22;443;51.448;7.028;2023-08-06T05:25:13;18.00;90.90
913;DHT22;443;51.448;7.028;2023-08-06T05:27:40;18.00;90.50
913;DHT22;443;51.448;7.028;2023-08-06T05:30:07;18.00;90.60
913;DHT22;443;51.448;7.028;2023-08-06T05:32:34;18.00;90.70
913;DHT22;443;51.448;7.028;2023-08-06T05:35:01;18.10;90.70
913;DHT22;443;51.448;7.028;2023-08-06T05:37:28;18.10;90.50
913;DHT22;443;51.448;7.028;2023-08-06T05:39:56;17.90;90.40
913;DHT22;443;51.448;7.028;2023-08-06T05:42:23;17.90;90.50
913;DHT22;443;51.448;7.028;2023-08-06T05:44:49;18.00;90.70
913;DHT22;443;51.448;7.028;2023-08-06T05:47:16;18.20;90.60
913;DHT22;443;51.448;7.028;2023-08-06T05:49:45;18.20;90.50
913;DHT22;443;51.448;7.028;2023-08-06T05:52:11;18.20;90.40
913;DHT22;443;51.448;7.028;2023-08-06T05:54:38;18.20;90.50
913;DHT22;443;51.448;7.028;2023-08-06T05:57:07;18.20;90.60
913;DHT22;443;51.448;7.028;2023-08-06T05:59:34;18.20;90.30
913;DHT22;443;51.448;7.028;2023-08-06T06:02:01;18.20;90.30
913;DHT22;443;51.448;7.028;2023-08-06T06:04:28;18.20;90.20
913;DHT22;443;51.448;7.028;2023-08-06T06:06:55;18.20;90.40
913;DHT22;443;51.448;7.028;2023-08-06T06:09:21;18.20;90.70
913;DHT22;443;51.448;7.028;2023-08-06T06:11:48;18.20;90.10
913;DHT22;443;51.448;7.028;2023-08-06T06:14:17;18.20;90.30
913;DHT22;443;51.448;7.028;2023-08-06T06:16:44;18.10;90.20
913;DHT22;443;51.448;7.028;2023-08-06T06:19:10;18.20;90.40
913;DHT22;443;51.448;7.028;2023-08-06T06:21:37;18.30;90.50
913;DHT22;443;51.448;7.028;2023-08-06T06:24:04;18.30;90.40
913;DHT22;443;51.448;7.028;2023-08-06T06:26:31;18.30;90.30
913;DHT22;443;51.448;7.028;2023-08-06T06:28:58;18.30;90.30
913;DHT22;443;51.448;7.028;2023-08-06T06:31:26;18.30;90.10
913;DHT22;443;51.448;7.028;2023-08-06T06:33:53;18.30;90.40
913;DHT22;443;51.448;7.028;2023-08-06T06:36:20;18.30;89.80
913;DHT22;443;51.448;7.028;2023-08-06T06:38:47;18.30;89.60
913;DHT22;443;51.448;7.028;2023-08-06T06:41:14;18.40;89.40
913;DHT22;443;51.448;7.028;2023-08-06T06:43:41;18.40;88.70
913;DHT22;443;51.448;7.028;2023-08-06T06:46:08;18.40;88.60
913;DHT22;443;51.448;7.028;2023-08-06T06:48:36;18.40;87.80
913;DHT22;443;51.448;7.028;2023-08-06T06:51:03;18.40;88.10
913;DHT22;443;51.448;7.028;2023-08-06T06:53:29;18.30;89.30
913;DHT22;443;51.448;7.028;2023-08-06T06:56:01;18.40;90.10
913;DHT22;443;51.448;7.028;2023-08-06T06:58:27;18.40;90.00
913;DHT22;443;51.448;7.028;2023-08-06T07:00:54;18.40;90.10
913;DHT22;443;51.448;7.028;2023-08-06T07:03:21;18.30;89.70
913;DHT22;443;51.448;7.028;2023-08-06T07:05:49;18.40;89.60
913;DHT22;443;51.448;7.028;2023-08-06T07:08:16;18.40;89.50
913;DHT22;443;51.448;7.028;2023-08-06T07:10:43;18.40;89.70
913;DHT22;443;51.448;7.028;2023-08-06T07:13:10;18.40;89.60
913;DHT22;443;51.448;7.028;2023-08-06T07:15:37;18.40;89.40
913;DHT22;443;51.448;7.028;2023-08-06T07:18:04;18.50;89.10
913;DHT22;443;51.448;7.028;2023-08-06T07:20:31;18.50;89.40
913;DHT22;443;51.448;7.028;2023-08-06T07:23:00;18.40;89.50
913;DHT22;443;51.448;7.028;2023-08-06T07:25:27;18.50;89.30
913;DHT22;443;51.448;7.028;2023-08-06T07:27:54;18.50;89.50
913;DHT22;443;51.448;7.028;2023-08-06T07:30:22;18.50;89.70
913;DHT22;443;51.448;7.028;2023-08-06T07:32:49;18.50;89.30
913;DHT22;443;51.448;7.028;2023-08-06T07:35:15;18.50;89.20
913;DHT22;443;51.448;7.028;2023-08-06T07:37:42;18.50;89.40
913;DHT22;443;51.448;7.028;2023-08-06T07:40:11;18.50;89.20
913;DHT22;443;51.448;7.028;2023-08-06T07:42:38;18.50;89.50
913;DHT22;443;51.448;7.028;2023-08-06T07:45:06;18.50;89.10
913;DHT22;443;51.448;7.028;2023-08-06T07:47:33;18.50;89.10
913;DHT22;443;51.448;7.028;2023-08-06T07:50:00;18.50;89.00
913;DHT22;443;51.448;7.028;2023-08-06T07:52:26;18.50;89.50
913;DHT22;443;51.448;7.028;2023-08-06T07:54:53;18.50;89.40
913;DHT22;443;51.448;7.028;2023-08-06T07:57:21;18.50;89.40
913;DHT22;443;51.448;7.028;2023-08-06T07:59:48;18.60;89.10
913;DHT22;443;51.448;7.028;2023-08-06T08:02:15;18.50;88.60
913;DHT22;443;51.448;7.028;2023-08-06T08:04:42;18.60;89.30
913;DHT22;443;51.448;7.028;2023-08-06T08:07:09;18.60;89.50
913;DHT22;443;51.448;7.028;2023-08-06T08:09:36;18.60;89.20
913;DHT22;443;51.448;7.028;2023-08-06T08:12:03;18.60;89.40
913;DHT22;443;51.448;7.028;2023-08-06T08:14:32;18.60;88.80
913;DHT22;443;51.448;7.028;2023-08-06T08:17:01;18.60;89.00
913;DHT22;443;51.448;7.028;2023-08-06T08:19:28;18.60;89.20
913;DHT22;443;51.448;7.028;2023-08-06T08:21:55;18.60;89.10
913;DHT22;443;51.448;7.028;2023-08-06T08:24:21;18.60;89.20
913;DHT22;443;51.448;7.028;2023-08-06T08:26:49;18.60;89.30
913;DHT22;443;51.448;7.028;2023-08-06T08:29:16;18.60;88.80
913;DHT22;443;51.448;7.028;2023-08-06T08:31:44;18.60;89.10
913;DHT22;443;51.448;7.028;2023-08-06T08:34:13;18.60;89.00
913;DHT22;443;51.448;7.028;2023-08-06T08:36:40;18.60;89.20
913;DHT22;443;51.448;7.028;2023-08-06T08:39:07;18.60;89.40
913;DHT22;443;51.448;7.028;2023-08-06T08:41:35;18.60;89.40
913;DHT22;443;51.448;7.028;2023-08-06T08:44:03;18.60;89.40
913;DHT22;443;51.448;7.028;2023-08-06T08:46:32;18.60;89.40
913;DHT22;443;51.448;7.028;2023-08-06T08:49:02;18.60;89.20
913;DHT22;443;51.448;7.028;2023-08-06T08:51:29;18.60;89.60
913;DHT22;443;51.448;7.028;2023-08-06T08:53:56;18.60;89.60
913;DHT22;443;51.448;7.028;2023-08-06T08:56:23;18.60;89.50
913;DHT22;443;51.448;7.028;2023-08-06T08:58:50;18.60;89.60
913;DHT22;443;51.448;7.028;2023-08-06T09:01:19;18.60;89.60
913;DHT22;443;51.448;7.028;2023-08-06T09:03:47;18.60;89.70
913;DHT22;443;51.448;7.028;2023-08-06T09:06:15;18.60;89.70
913;DHT22;443;51.448;7.028;2023-08-06T09:08:49;18.60;89.50
913;DHT22;443;51.448;7.028;2023-08-06T09:11:19;18.60;89.60
913;DHT22;443;51.448;7.028;2023-08-06T09:13:47;18.60;89.50
913;DHT22;443;51.448;7.028;2023-08-06T09:16:14;18.60;89.50
913;DHT22;443;51.448;7.028;2023-08-06T09:18:40;18.60;89.60
913;DHT22;443;51.448;7.028;2023-08-06T09:21:14;18.60;89.60
913;DHT22;443;51.448;7.028;2023-08-06T09:23:42;18.60;89.60
913;DHT22;443;51.448;7.028;2023-08-06T09:26:13;18.60;89.50
913;DHT22;443;51.448;7.028;2023-08-06T09:28:40;18.60;89.40
913;DHT22;443;51.448;7.028;2023-08-06T09:31:08;18.60;89.50
913;DHT22;443;51.448;7.028;2023-08-06T09:33:36;18.60;89.50
913;DHT22;443;51.448;7.028;2023-08-06T09:36:10;18.60;89.50
913;DHT22;443;51.448;7.028;2023-08-06T09:38:41;18.60;89.50
913;DHT22;443;51.448;7.028;2023-08-06T09:41:08;18.60;89.50
913;DHT22;443;51.448;7.028;2023-08-06T09:43:41;18.60;89.40
913;DHT22;443;51.448;7.028;2023-08-06T09:46:12;18.60;89.50
913;DHT22;443;51.448;7.028;2023-08-06T09:48:45;18.60;89.40
913;DHT22;443;51.448;7.028;2023-08-06T09:51:13;18.60;89.40
913;DHT22;443;51.448;7.028;2023-08-06T09:53:42;18.60;89.30
913;DHT22;443;51.448;7.028;2023-08-06T09:56:10;18.60;89.40
913;DHT22;443;51.448;7.028;2023-08-06T09:58:39;18.60;89.30
913;DHT22;443;51.448;7.028;2023-08-06T10:01:06;18.60;89.30
913;DHT22;443;51.448;7.028;2023-08-06T10:03:34;18.70;89.40
913;DHT22;443;51.448;7.028;2023-08-06T10:06:01;18.70;89.40
913;DHT22;443;51.448;7.028;2023-08-06T10:08:32;18.70;89.30
913;DHT22;443;51.448;7.028;2023-08-06T10:11:02;18.70;89.30
913;DHT22;443;51.448;7.028;2023-08-06T10:13:31;18.70;89.40
913;DHT22;443;51.448;7.028;2023-08-06T10:15:59;18.60;89.30
913;DHT22;443;51.448;7.028;2023-08-06T10:18:26;18.70;89.40
913;DHT22;443;51.448;7.028;2023-08-06T10:20:53;18.70;89.70
913;DHT22;443;51.448;7.028;2023-08-06T10:23:33;18.80;90.00
913;DHT22;443;51.448;7.028;2023-08-06T10:26:01;18.80;90.00
913;DHT22;443;51.448;7.028;2023-08-06T10:28:34;18.70;89.50
913;DHT22;443;51.448;7.028;2023-08-06T10:31:01;18.70;89.50
913;DHT22;443;51.448;7.028;2023-08-06T10:33:41;18.70;89.40
913;DHT22;443;51.448;7.028;2023-08-06T10:36:09;18.70;89.40
913;DHT22;443;51.448;7.028;2023-08-06T10:38:44;18.70;89.30
913;DHT22;443;51.448;7.028;2023-08-06T10:41:21;18.70;88.90
913;DHT22;443;51.448;7.028;2023-08-06T10:43:48;18.80;89.10
913;DHT22;443;51.448;7.028;2023-08-06T10:46:23;18.80;89.10
913;DHT22;443;51.448;7.028;2023-08-06T10:48:50;18.70;89.10
913;DHT22;443;51.448;7.028;2023-08-06T10:51:17;18.70;89.10
913;DHT22;443;51.448;7.028;2023-08-06T10:53:45;18.70;89.20
913;DHT22;443;51.448;7.028;2023-08-06T10:56:12;18.70;89.30
913;DHT22;443;51.448;7.028;2023-08-06T10:58:41;18.70;89.20
913;DHT22;443;51.448;7.028;2023-08-06T11:01:09;18.70;89.20
913;DHT22;443;51.448;7.028;2023-08-06T11:03:36;18.70;89.10
913;DHT22;443;51.448;7.028;2023-08-06T11:06:03;18.70;89.00
913;DHT22;443;51.448;7.028;2023-08-06T11:08:33;18.80;89.10
913;DHT22;443;51.448;7.028;2023-08-06T11:11:08;18.80;89.10
913;DHT22;443;51.448;7.028;2023-08-06T11:13:36;18.70;89.20
913;DHT22;443;51.448;7.028;2023-08-06T11:16:05;18.70;89.20
913;DHT22;443;51.448;7.028;2023-08-06T11:18:32;18.70;89.20
913;DHT22;443;51.448;7.028;2023-08-06T11:20:59;18.70;89.30
913;DHT22;443;51.448;7.028;2023-08-06T11:23:27;18.70;89.20
913;DHT22;443;51.448;7.028;2023-08-06T11:25:54;18.70;89.20
913;DHT22;443;51.448;7.028;2023-08-06T11:28:21;18.70;89.20
913;DHT22;443;51.448;7.028;2023-08-06T11:30:48;18.70;89.20
913;DHT22;443;51.448;7.028;2023-08-06T11:33:20;18.70;89.30
913;DHT22;443;51.448;7.028;2023-08-06T11:35:48;18.70;89.30
913;DHT22;443;51.448;7.028;2023-08-06T11:38:15;18.70;89.30
913;DHT22;443;51.448;7.028;2023-08-06T11:40:43;18.80;89.40
913;DHT22;443;51.448;7.028;2023-08-06T11:43:10;18.80;89.20
913;DHT22;443;51.448;7.028;2023-08-06T11:45:38;18.70;89.30
913;DHT22;443;51.448;7.028;2023-08-06T11:48:05;18.70;89.40
913;DHT22;443;51.448;7.028;2023-08-06T11:50:37;18.70;89.70
913;DHT22;443;51.448;7.028;2023-08-06T11:53:04;18.70;89.90
913;DHT22;443;51.448;7.028;2023-08-06T11:55:31;18.70;89.80
913;DHT22;443;51.448;7.028;2023-08-06T11:57:59;18.70;90.00
913;DHT22;443;51.448;7.028;2023-08-06T12:00:29;18.60;90.00
913;DHT22;443;51.448;7.028;2023-08-06T12:02:56;18.60;90.00
913;DHT22;443;51.448;7.028;2023-08-06T12:05:24;18.60;90.00
913;DHT22;443;51.448;7.028;2023-08-06T12:07:53;18.60;90.00
913;DHT22;443;51.448;7.028;2023-08-06T12:10:22;18.60;90.10
913;DHT22;443;51.448;7.028;2023-08-06T12:12:50;18.50;90.00
913;DHT22;443;51.448;7.028;2023-08-06T12:15:17;18.60;90.20
913;DHT22;443;51.448;7.028;2023-08-06T12:17:44;18.50;90.20
913;DHT22;443;51.448;7.028;2023-08-06T12:20:11;18.50;90.10
913;DHT22;443;51.448;7.028;2023-08-06T12:22:38;18.50;90.10
913;DHT22;443;51.448;7.028;2023-08-06T12:25:08;18.50;90.20
913;DHT22;443;51.448;7.028;2023-08-06T12:27:37;18.50;90.20
913;DHT22;443;51.448;7.028;2023-08-06T12:30:05;18.50;90.20
913;DHT22;443;51.448;7.028;2023-08-06T12:32:33;18.50;90.20
913;DHT22;443;51.448;7.028;2023-08-06T12:35:00;18.40;90.30
913;DHT22;443;51.448;7.028;2023-08-06T12:37:27;18.50;90.20
913;DHT22;443;51.448;7.028;2023-08-06T12:39:54;18.40;90.30
913;DHT22;443;51.448;7.028;2023-08-06T12:42:22;18.50;90.20
913;DHT22;443;51.448;7.028;2023-08-06T12:44:50;18.40;90.10
913;DHT22;443;51.448;7.028;2023-08-06T12:47:17;18.40;90.10
913;DHT22;443;51.448;7.028;2023-08-06T12:49:44;18.40;90.20
913;DHT22;443;51.448;7.028;2023-08-06T12:52:11;18.40;90.30
913;DHT22;443;51.448;7.028;2023-08-06T12:54:40;18.40;90.20
913;DHT22;443;51.448;7.028;2023-08-06T12:57:07;18.40;90.10
913;DHT22;443;51.448;7.028;2023-08-06T12:59:35;18.40;90.20
913;DHT22;443;51.448;7.028;2023-08-06T13:02:02;18.40;90.00
913;DHT22;443;51.448;7.028;2023-08-06T13:04:29;18.40;90.00
913;DHT22;443;51.448;7.028;2023-08-06T13:06:56;18.40;89.20
913;DHT22;443;51.448;7.028;2023-08-06T13:09:23;18.40;89.70
913;DHT22;443;51.448;7.028;2023-08-06T13:11:50;18.40;89.40
913;DHT22;443;51.448;7.028;2023-08-06T13:14:16;18.40;89.90
913;DHT22;443;51.448;7.028;2023-08-06T13:16:46;18.40;89.80
913;DHT22;443;51.448;7.028;2023-08-06T13:19:13;18.40;89.80
913;DHT22;443;51.448;7.028;2023-08-06T13:21:59;18.30;89.70
913;DHT22;443;51.448;7.028;2023-08-06T13:24:26;18.40;89.80
913;DHT22;443;51.448;7.028;2023-08-06T13:26:53;18.30;90.00
913;DHT22;443;51.448;7.028;2023-08-06T13:29:20;18.30;89.10
913;DHT22;443;51.448;7.028;2023-08-06T13:31:48;18.30;89.20
913;DHT22;443;51.448;7.028;2023-08-06T13:34:15;18.30;89.60
913;DHT22;443;51.448;7.028;2023-08-06T13:36:43;18.30;89.40
913;DHT22;443;51.448;7.028;2023-08-06T13:39:10;18.30;89.90
913;DHT22;443;51.448;7.028;2023-08-06T13:41:37;18.30;89.90
913;DHT22;443;51.448;7.028;2023-08-06T13:44:04;18.30;89.80
913;DHT22;443;51.448;7.028;2023-08-06T13:46:31;18.30;89.80
913;DHT22;443;51.448;7.028;2023-08-06T13:48:59;18.30;89.30
913;DHT22;443;51.448;7.028;2023-08-06T13:51:25;18.30;90.10
913;DHT22;443;51.448;7.028;2023-08-06T13:53:52;18.30;89.80
913;DHT22;443;51.448;7.028;2023-08-06T13:56:19;18.30;89.60
913;DHT22;443;51.448;7.028;2023-08-06T13:58:46;18.30;90.00
913;DHT22;443;51.448;7.028;2023-08-06T14:01:13;18.30;89.80
913;DHT22;443;51.448;7.028;2023-08-06T14:03:43;18.30;90.20
913;DHT22;443;51.448;7.028;2023-08-06T14:06:11;18.30;90.00
913;DHT22;443;51.448;7.028;2023-08-06T14:08:37;18.30;89.80
913;DHT22;443;51.448;7.028;2023-08-06T14:11:05;18.30;90.00
913;DHT22;443;51.448;7.028;2023-08-06T14:13:32;18.30;89.60
913;DHT22;443;51.448;7.028;2023-08-06T14:15:59;18.30;89.70
913;DHT22;443;51.448;7.028;2023-08-06T14:18:26;18.30;89.90
913;DHT22;443;51.448;7.028;2023-08-06T14:20:53;18.30;90.00
913;DHT22;443;51.448;7.028;2023-08-06T14:23:21;18.30;90.10
913;DHT22;443;51.448;7.028;2023-08-06T14:25:48;18.30;89.70
913;DHT22;443;51.448;7.028;2023-08-06T14:28:14;18.20;89.70
913;DHT22;443;51.448;7.028;2023-08-06T14:30:41;18.30;89.90
913;DHT22;443;51.448;7.028;2023-08-06T14:33:08;18.30;89.40
913;DHT22;443;51.448;7.028;2023-08-06T14:35:34;18.30;89.40
913;DHT22;443;51.448;7.028;2023-08-06T14:38:01;18.20;89.20
913;DHT22;443;51.448;7.028;2023-08-06T14:40:29;18.20;90.00
913;DHT22;443;51.448;7.028;2023-08-06T14:43:00;18.20;88.80
913;DHT22;443;51.448;7.028;2023-08-06T14:45:27;18.30;90.10
913;DHT22;443;51.448;7.028;2023-08-06T14:47:53;18.30;90.10
913;DHT22;443;51.448;7.028;2023-08-06T14:50:20;18.30;90.10
913;DHT22;443;51.448;7.028;2023-08-06T14:52:47;18.30;89.70
913;DHT22;443;51.448;7.028;2023-08-06T14:55:17;18.30;89.80
913;DHT22;443;51.448;7.028;2023-08-06T14:57:50;18.30;89.70
913;DHT22;443;51.448;7.028;2023-08-06T15:00:17;18.30;89.40
913;DHT22;443;51.448;7.028;2023-08-06T15:02:44;18.30;90.00
913;DHT22;443;51.448;7.028;2023-08-06T15:05:11;18.30;89.40
913;DHT22;443;51.448;7.028;2023-08-06T15:07:38;18.30;89.20
913;DHT22;443;51.448;7.028;2023-08-06T15:10:05;18.30;90.00
913;DHT22;443;51.448;7.028;2023-08-06T15:12:32;18.30;90.00
913;DHT22;443;51.448;7.028;2023-08-06T15:15:00;18.30;89.50
913;DHT22;443;51.448;7.028;2023-08-06T15:17:27;18.30;89.50
913;DHT22;443;51.448;7.028;2023-08-06T15:19:56;18.30;88.70
913;DHT22;443;51.448;7.028;2023-08-06T15:22:23;18.30;88.00
913;DHT22;443;51.448;7.028;2023-08-06T15:24:50;18.30;89.10
913;DHT22;443;51.448;7.028;2023-08-06T15:27:16;18.30;88.80
913;DHT22;443;51.448;7.028;2023-08-06T15:29:43;18.30;88.70
913;DHT22;443;51.448;7.028;2023-08-06T15:32:11;18.30;87.80
913;DHT22;443;51.448;7.028;2023-08-06T15:34:39;18.30;88.10
913;DHT22;443;51.448;7.028;2023-08-06T15:37:06;18.30;88.20
913;DHT22;443;51.448;7.028;2023-08-06T15:39:33;18.30;88.50
913;DHT22;443;51.448;7.028;2023-08-06T15:41:59;18.30;88.70
913;DHT22;443;51.448;7.028;2023-08-06T15:44:26;18.30;89.00
913;DHT22;443;51.448;7.028;2023-08-06T15:46:53;18.30;88.00
913;DHT22;443;51.448;7.028;2023-08-06T15:49:21;18.30;88.70
913;DHT22;443;51.448;7.028;2023-08-06T15:51:48;18.30;88.40
913;DHT22;443;51.448;7.028;2023-08-06T15:54:15;18.30;89.00
913;DHT22;443;51.448;7.028;2023-08-06T15:56:42;18.30;89.00
913;DHT22;443;51.448;7.028;2023-08-06T15:59:22;18.30;88.60
913;DHT22;443;51.448;7.028;2023-08-06T16:01:48;18.30;88.90
913;DHT22;443;51.448;7.028;2023-08-06T16:04:15;18.30;88.20
913;DHT22;443;51.448;7.028;2023-08-06T16:06:43;18.30;87.50
913;DHT22;443;51.448;7.028;2023-08-06T16:09:10;18.30;88.30
913;DHT22;443;51.448;7.028;2023-08-06T16:11:39;18.30;88.40
913;DHT22;443;51.448;7.028;2023-08-06T16:14:05;18.30;88.80
913;DHT22;443;51.448;7.028;2023-08-06T16:16:32;18.30;89.80
913;DHT22;443;51.448;7.028;2023-08-06T16:18:59;18.30;89.70
913;DHT22;443;51.448;7.028;2023-08-06T16:21:26;18.30;89.90
913;DHT22;443;51.448;7.028;2023-08-06T16:23:54;18.30;89.90
913;DHT22;443;51.448;7.028;2023-08-06T16:26:21;18.30;88.80
913;DHT22;443;51.448;7.028;2023-08-06T16:28:47;18.30;89.20
913;DHT22;443;51.448;7.028;2023-08-06T16:31:14;18.30;89.10
913;DHT22;443;51.448;7.028;2023-08-06T16:33:41;18.30;89.00
913;DHT22;443;51.448;7.028;2023-08-06T16:36:09;18.30;88.80